sensor_id;sensor_type;location;lat;lon;timestamp;pressure;altitude;pressure_sealevel;temperature;humidity
68376;BME280;55318;52.068;5.188;2023-09-18T00:00:09;100667.0;;;19.97;100.0
68376;BME280;55318;52.068;5.188;2023-09-18T00:01:46;100658.0;;;19.95;100.0
68376;BME280;55318;52.068;5.188;2023-09-18T00:04:58;100652.0;;;20.0;100.0
68376;BME280;55318;52.068;5.188;2023-09-18T00:06:34;100644.0;;;19.96;100.0
68376;BME280;55318;52.068;5.188;2023-09-18T00:08:10;100631.0;;;19.96;100.0
68376;BME280;55318;52.068;5.188;2023-09-18T00:11:22;100623.0;;;20.02;100.0
68376;BME280;55318;52.068;5.188;2023-09-18T00:13:00;100618.0;;;20.0;100.0
68376;BME280;55318;52.068;5.188;2023-09-18T00:14:36;100617.0;;;19.97;100.0
68376;BME280;55318;52.068;5.188;2023-09-18T00:17:49;100610.0;;;20.03;100.0
68376;BME280;55318;52.068;5.188;2023-09-18T00:19:25;100610.0;;;20.0;100.0
68376;BME280;55318;52.068;5.188;2023-09-18T00:21:01;100605.0;;;20.12;100.0
68376;BME280;55318;52.068;5.188;2023-09-18T00:22:38;100601.0;;;20.38;100.0
68376;BME280;55318;52.068;5.188;2023-09-18T00:25:51;100603.0;;;20.25;100.0
68376;BME280;55318;52.068;5.188;2023-09-18T00:27:27;100600.0;;;20.21;100.0
68376;BME280;55318;52.068;5.188;2023-09-18T00:29:03;100593.0;;;20.3;100.0
68376;BME280;55318;52.068;5.188;2023-09-18T00:32:23;100586.0;;;20.27;100.0
68376;BME280;55318;52.068;5.188;2023-09-18T00:33:59;100581.0;;;20.41;100.0
68376;BME280;55318;52.068;5.188;2023-09-18T00:35:35;100578.0;;;20.49;100.0
68376;BME280;55318;52.068;5.188;2023-09-18T00:38:47;100577.0;;;20.31;100.0
68376;BME280;55318;52.068;5.188;2023-09-18T00:40:24;100582.0;;;20.46;100.0
68376;BME280;55318;52.068;5.188;2023-09-18T00:42:00;100584.0;;;20.61;100.0
68376;BME280;55318;52.068;5.188;2023-09-18T00:43:36;100578.0;;;20.61;100.0
68376;BME280;55318;52.068;5.188;2023-09-18T00:46:49;100570.0;;;20.69;100.0
68376;BME280;55318;52.068;5.188;2023-09-18T00:48:25;100564.0;;;20.55;100.0
68376;BME280;55318;52.068;5.188;2023-09-18T00:50:01;100555.0;;;20.56;100.0
68376;BME280;55318;52.068;5.188;2023-09-18T00:53:20;100544.0;;;20.58;100.0
68376;BME280;55318;52.068;5.188;2023-09-18T00:54:58;100537.0;;;20.67;100.0
68376;BME280;55318;52.068;5.188;2023-09-18T00:56:35;100540.0;;;20.7;100.0
68376;BME280;55318;52.068;5.188;2023-09-18T00:58:13;100544.0;;;20.59;100.0
68376;BME280;55318;52.068;5.188;2023-09-18T01:01:26;100535.0;;;20.66;100.0
68376;BME280;55318;52.068;5.188;2023-09-18T01:03:03;100524.0;;;20.77;100.0
68376;BME280;55318;52.068;5.188;2023-09-18T01:04:40;100517.0;;;20.65;100.0
68376;BME280;55318;52.068;5.188;2023-09-18T01:07:53;100506.0;;;20.71;100.0
68376;BME280;55318;52.068;5.188;2023-09-18T01:09:31;100501.0;;;20.77;100.0
68376;BME280;55318;52.068;5.188;2023-09-18T01:11:13;100498.0;;;20.85;100.0
68376;BME280;55318;52.068;5.188;2023-09-18T01:12:58;100494.0;;;20.88;100.0
68376;BME280;55318;52.068;5.188;2023-09-18T01:16:33;100490.0;;;20.87;100.0
68376;BME280;55318;52.068;5.188;2023-09-18T01:18:13;100484.0;;;20.87;100.0
68376;BME280;55318;52.068;5.188;2023-09-18T01:21:26;100475.0;;;20.98;100.0
68376;BME280;55318;52.068;5.188;2023-09-18T01:24:39;100474.0;;;20.89;100.0
68376;BME280;55318;52.068;5.188;2023-09-18T01:26:16;100472.0;;;20.9;100.0
68376;BME280;55318;52.068;5.188;2023-09-18T01:27:52;100464.0;;;20.95;100.0
68376;BME280;55318;52.068;5.188;2023-09-18T01:31:04;100456.0;;;20.95;100.0
68376;BME280;55318;52.068;5.188;2023-09-18T01:32:43;100455.0;;;21.03;100.0
68376;BME280;55318;52.068;5.188;2023-09-18T01:34:21;100459.0;;;21.03;100.0
68376;BME280;55318;52.068;5.188;2023-09-18T01:36:02;100465.0;;;20.94;100.0
68376;BME280;55318;52.068;5.188;2023-09-18T01:39:20;100473.0;;;20.9;100.0
68376;BME280;55318;52.068;5.188;2023-09-18T01:40:57;100471.0;;;20.79;100.0
68376;BME280;55318;52.068;5.188;2023-09-18T01:42:34;100473.0;;;20.78;100.0
68376;BME280;55318;52.068;5.188;2023-09-18T01:44:11;100468.0;;;20.81;100.0
68376;BME280;55318;52.068;5.188;2023-09-18T01:47:23;100467.0;;;20.97;100.0
68376;BME280;55318;52.068;5.188;2023-09-18T01:48:59;100463.0;;;21.06;100.0
68376;BME280;55318;52.068;5.188;2023-09-18T01:50:36;100455.0;;;21.13;100.0
68376;BME280;55318;52.068;5.188;2023-09-18T01:53:50;100450.0;;;21.21;100.0
68376;BME280;55318;52.068;5.188;2023-09-18T01:55:29;100451.0;;;21.19;100.0
68376;BME280;55318;52.068;5.188;2023-09-18T01:57:05;100455.0;;;21.2;100.0
68376;BME280;55318;52.068;5.188;2023-09-18T02:00:18;100452.0;;;21.15;100.0
68376;BME280;55318;52.068;5.188;2023-09-18T02:01:54;100455.0;;;21.22;100.0
68376;BME280;55318;52.068;5.188;2023-09-18T02:03:30;100456.0;;;21.2;100.0
68376;BME280;55318;52.068;5.188;2023-09-18T02:05:07;100455.0;;;21.19;100.0
68376;BME280;55318;52.068;5.188;2023-09-18T02:08:20;100459.0;;;21.2;100.0
68376;BME280;55318;52.068;5.188;2023-09-18T02:09:56;100456.0;;;21.13;100.0
68376;BME280;55318;52.068;5.188;2023-09-18T02:11:32;100459.0;;;21.03;100.0
68376;BME280;55318;52.068;5.188;2023-09-18T02:14:44;100467.0;;;21.03;100.0
68376;BME280;55318;52.068;5.188;2023-09-18T02:16:21;100473.0;;;21.01;100.0
68376;BME280;55318;52.068;5.188;2023-09-18T02:17:57;100470.0;;;21.14;100.0
68376;BME280;55318;52.068;5.188;2023-09-18T02:21:09;100466.0;;;21.1;100.0
68376;BME280;55318;52.068;5.188;2023-09-18T02:22:46;100459.0;;;21.15;100.0
68376;BME280;55318;52.068;5.188;2023-09-18T02:24:22;100458.0;;;21.15;100.0
68376;BME280;55318;52.068;5.188;2023-09-18T02:27:34;100455.0;;;21.19;100.0
68376;BME280;55318;52.068;5.188;2023-09-18T02:29:11;100445.0;;;21.14;100.0
68376;BME280;55318;52.068;5.188;2023-09-18T02:30:46;100440.0;;;21.17;100.0
68376;BME280;55318;52.068;5.188;2023-09-18T02:32:23;100436.0;;;21.08;100.0
68376;BME280;55318;52.068;5.188;2023-09-18T02:35:35;100436.0;;;21.16;100.0
68376;BME280;55318;52.068;5.188;2023-09-18T02:37:11;100433.0;;;21.07;100.0
68376;BME280;55318;52.068;5.188;2023-09-18T02:38:47;100430.0;;;21.05;100.0
68376;BME280;55318;52.068;5.188;2023-09-18T02:41:59;100432.0;;;20.97;100.0
68376;BME280;55318;52.068;5.188;2023-09-18T02:43:36;100441.0;;;20.89;100.0
68376;BME280;55318;52.068;5.188;2023-09-18T02:45:12;100434.0;;;20.81;100.0
68376;BME280;55318;52.068;5.188;2023-09-18T02:48:24;100433.0;;;20.76;100.0
68376;BME280;55318;52.068;5.188;2023-09-18T02:49:59;100421.0;;;20.73;100.0
68376;BME280;55318;52.068;5.188;2023-09-18T02:51:35;100408.0;;;20.73;100.0
68376;BME280;55318;52.068;5.188;2023-09-18T02:54:53;100399.0;;;20.79;100.0
68376;BME280;55318;52.068;5.188;2023-09-18T02:56:29;100384.0;;;20.81;100.0
68376;BME280;55318;52.068;5.188;2023-09-18T02:58:06;100373.0;;;20.76;100.0
68376;BME280;55318;52.068;5.188;2023-09-18T02:59:42;100362.0;;;20.77;100.0
68376;BME280;55318;52.068;5.188;2023-09-18T03:02:54;100349.0;;;20.74;100.0
68376;BME280;55318;52.068;5.188;2023-09-18T03:04:31;100343.0;;;20.64;100.0
68376;BME280;55318;52.068;5.188;2023-09-18T03:06:07;100339.0;;;20.56;100.0
68376;BME280;55318;52.068;5.188;2023-09-18T03:09:19;100335.0;;;20.48;100.0
68376;BME280;55318;52.068;5.188;2023-09-18T03:10:55;100335.0;;;20.45;100.0
68376;BME280;55318;52.068;5.188;2023-09-18T03:12:31;100335.0;;;20.47;100.0
68376;BME280;55318;52.068;5.188;2023-09-18T03:15:45;100341.0;;;20.46;100.0
68376;BME280;55318;52.068;5.188;2023-09-18T03:17:21;100343.0;;;20.43;100.0
68376;BME280;55318;52.068;5.188;2023-09-18T03:18:57;100338.0;;;20.45;100.0
68376;BME280;55318;52.068;5.188;2023-09-18T03:20:33;100335.0;;;20.38;100.0
68376;BME280;55318;52.068;5.188;2023-09-18T03:23:45;100337.0;;;20.52;100.0
68376;BME280;55318;52.068;5.188;2023-09-18T03:25:22;100330.0;;;20.56;100.0
68376;BME280;55318;52.068;5.188;2023-09-18T03:26:58;100331.0;;;20.48;100.0
68376;BME280;55318;52.068;5.188;2023-09-18T03:30:10;100336.0;;;20.54;100.0
68376;BME280;55318;52.068;5.188;2023-09-18T03:31:47;100335.0;;;20.67;100.0
68376;BME280;55318;52.068;5.188;2023-09-18T03:33:23;100336.0;;;20.65;100.0
68376;BME280;55318;52.068;5.188;2023-09-18T03:36:35;100339.0;;;20.6;100.0
68376;BME280;55318;52.068;5.188;2023-09-18T03:38:11;100343.0;;;20.53;100.0
68376;BME280;55318;52.068;5.188;2023-09-18T03:39:47;100358.0;;;20.55;100.0
68376;BME280;55318;52.068;5.188;2023-09-18T03:41:23;100355.0;;;20.57;100.0
68376;BME280;55318;52.068;5.188;2023-09-18T03:46:13;100348.0;;;20.49;100.0
68376;BME280;55318;52.068;5.188;2023-09-18T03:47:49;100358.0;;;20.49;100.0
68376;BME280;55318;52.068;5.188;2023-09-18T03:51:04;100364.0;;;20.45;100.0
68376;BME280;55318;52.068;5.188;2023-09-18T03:52:40;100359.0;;;20.43;100.0
68376;BME280;55318;52.068;5.188;2023-09-18T03:54:16;100344.0;;;20.49;100.0
68376;BME280;55318;52.068;5.188;2023-09-18T03:57:29;100340.0;;;20.46;100.0
68376;BME280;55318;52.068;5.188;2023-09-18T03:59:05;100340.0;;;20.55;100.0
68376;BME280;55318;52.068;5.188;2023-09-18T04:00:41;100337.0;;;20.52;100.0
68376;BME280;55318;52.068;5.188;2023-09-18T04:02:17;100333.0;;;20.62;100.0
68376;BME280;55318;52.068;5.188;2023-09-18T04:05:29;100317.0;;;20.75;100.0
68376;BME280;55318;52.068;5.188;2023-09-18T04:07:05;100308.0;;;20.77;100.0
68376;BME280;55318;52.068;5.188;2023-09-18T04:08:41;100305.0;;;20.93;100.0
68376;BME280;55318;52.068;5.188;2023-09-18T04:11:54;100298.0;;;21.0;100.0
68376;BME280;55318;52.068;5.188;2023-09-18T04:13:30;100303.0;;;21.09;100.0
68376;BME280;55318;52.068;5.188;2023-09-18T04:15:06;100302.0;;;21.14;100.0
68376;BME280;55318;52.068;5.188;2023-09-18T04:18:18;100288.0;;;21.21;100.0
68376;BME280;55318;52.068;5.188;2023-09-18T04:19:54;100280.0;;;21.25;100.0
68376;BME280;55318;52.068;5.188;2023-09-18T04:21:30;100270.0;;;21.22;100.0
68376;BME280;55318;52.068;5.188;2023-09-18T04:25:01;100272.0;;;21.28;100.0
68376;BME280;55318;52.068;5.188;2023-09-18T04:26:37;100269.0;;;21.23;100.0
68376;BME280;55318;52.068;5.188;2023-09-18T04:28:13;100276.0;;;21.31;100.0
68376;BME280;55318;52.068;5.188;2023-09-18T04:29:49;100283.0;;;21.35;100.0
68376;BME280;55318;52.068;5.188;2023-09-18T04:33:01;100281.0;;;21.38;100.0
68376;BME280;55318;52.068;5.188;2023-09-18T04:34:37;100275.0;;;21.37;100.0
68376;BME280;55318;52.068;5.188;2023-09-18T04:36:13;100255.0;;;21.38;100.0
68376;BME280;55318;52.068;5.188;2023-09-18T04:37:50;100252.0;;;21.31;100.0
68376;BME280;55318;52.068;5.188;2023-09-18T04:41:02;100240.0;;;21.32;100.0
68376;BME280;55318;52.068;5.188;2023-09-18T04:42:39;100243.0;;;21.19;100.0
68376;BME280;55318;52.068;5.188;2023-09-18T04:44:15;100232.0;;;21.19;100.0
68376;BME280;55318;52.068;5.188;2023-09-18T04:47:27;100231.0;;;21.25;100.0
68376;BME280;55318;52.068;5.188;2023-09-18T04:49:03;100233.0;;;21.25;100.0
68376;BME280;55318;52.068;5.188;2023-09-18T04:50:39;100232.0;;;21.22;100.0
68376;BME280;55318;52.068;5.188;2023-09-18T04:53:52;100230.0;;;21.21;100.0
68376;BME280;55318;52.068;5.188;2023-09-18T04:55:28;100236.0;;;21.26;100.0
68376;BME280;55318;52.068;5.188;2023-09-18T04:57:04;100240.0;;;21.25;100.0
68376;BME280;55318;52.068;5.188;2023-09-18T05:00:16;100240.0;;;21.21;100.0
68376;BME280;55318;52.068;5.188;2023-09-18T05:01:52;100240.0;;;21.13;100.0
68376;BME280;55318;52.068;5.188;2023-09-18T05:03:28;100242.0;;;21.27;100.0
68376;BME280;55318;52.068;5.188;2023-09-18T05:05:05;100244.0;;;21.21;100.0
68376;BME280;55318;52.068;5.188;2023-09-18T05:08:18;100253.0;;;21.26;100.0
68376;BME280;55318;52.068;5.188;2023-09-18T05:09:54;100263.0;;;21.21;100.0
68376;BME280;55318;52.068;5.188;2023-09-18T05:11:30;100271.0;;;21.14;100.0
68376;BME280;55318;52.068;5.188;2023-09-18T05:14:43;100261.0;;;21.27;100.0
68376;BME280;55318;52.068;5.188;2023-09-18T05:16:19;100259.0;;;21.3;100.0
68376;BME280;55318;52.068;5.188;2023-09-18T05:17:56;100267.0;;;21.22;100.0
68376;BME280;55318;52.068;5.188;2023-09-18T05:21:09;100259.0;;;21.28;100.0
68376;BME280;55318;52.068;5.188;2023-09-18T05:22:45;100268.0;;;21.26;100.0
68376;BME280;55318;52.068;5.188;2023-09-18T05:24:22;100276.0;;;21.26;100.0
68376;BME280;55318;52.068;5.188;2023-09-18T05:25:57;100270.0;;;21.21;100.0
68376;BME280;55318;52.068;5.188;2023-09-18T05:29:09;100263.0;;;21.13;100.0
68376;BME280;55318;52.068;5.188;2023-09-18T05:30:45;100270.0;;;21.17;100.0
68376;BME280;55318;52.068;5.188;2023-09-18T05:32:21;100273.0;;;21.2;100.0
68376;BME280;55318;52.068;5.188;2023-09-18T05:35:35;100278.0;;;21.28;100.0
68376;BME280;55318;52.068;5.188;2023-09-18T05:37:13;100280.0;;;21.16;100.0
68376;BME280;55318;52.068;5.188;2023-09-18T05:38:49;100284.0;;;21.12;100.0
68376;BME280;55318;52.068;5.188;2023-09-18T05:42:02;100287.0;;;21.04;100.0
68376;BME280;55318;52.068;5.188;2023-09-18T05:43:39;100289.0;;;20.98;100.0
68376;BME280;55318;52.068;5.188;2023-09-18T05:45:15;100292.0;;;21.01;100.0
68376;BME280;55318;52.068;5.188;2023-09-18T05:46:51;100290.0;;;20.95;100.0
68376;BME280;55318;52.068;5.188;2023-09-18T05:50:04;100293.0;;;20.93;100.0
68376;BME280;55318;52.068;5.188;2023-09-18T05:51:40;100287.0;;;20.9;100.0
68376;BME280;55318;52.068;5.188;2023-09-18T05:53:16;100280.0;;;20.89;100.0
68376;BME280;55318;52.068;5.188;2023-09-18T05:56:28;100280.0;;;20.82;100.0
68376;BME280;55318;52.068;5.188;2023-09-18T05:58:04;100273.0;;;20.77;100.0
68376;BME280;55318;52.068;5.188;2023-09-18T05:59:40;100263.0;;;20.72;100.0
68376;BME280;55318;52.068;5.188;2023-09-18T06:02:52;100271.0;;;20.68;100.0
68376;BME280;55318;52.068;5.188;2023-09-18T06:04:28;100274.0;;;20.6;100.0
68376;BME280;55318;52.068;5.188;2023-09-18T06:06:05;100275.0;;;20.56;100.0
68376;BME280;55318;52.068;5.188;2023-09-18T06:09:17;100266.0;;;20.62;100.0
68376;BME280;55318;52.068;5.188;2023-09-18T06:10:54;100268.0;;;20.63;100.0
68376;BME280;55318;52.068;5.188;2023-09-18T06:12:30;100285.0;;;20.66;100.0
68376;BME280;55318;52.068;5.188;2023-09-18T06:14:06;100284.0;;;20.67;100.0
68376;BME280;55318;52.068;5.188;2023-09-18T06:17:18;100282.0;;;20.71;100.0
68376;BME280;55318;52.068;5.188;2023-09-18T06:18:54;100295.0;;;20.71;100.0
68376;BME280;55318;52.068;5.188;2023-09-18T06:20:30;100299.0;;;20.77;100.0
68376;BME280;55318;52.068;5.188;2023-09-18T06:23:42;100299.0;;;20.83;100.0
68376;BME280;55318;52.068;5.188;2023-09-18T06:25:19;100300.0;;;20.88;100.0
68376;BME280;55318;52.068;5.188;2023-09-18T06:26:54;100292.0;;;20.87;100.0
68376;BME280;55318;52.068;5.188;2023-09-18T06:30:07;100284.0;;;20.94;100.0
68376;BME280;55318;52.068;5.188;2023-09-18T06:31:44;100283.0;;;20.95;100.0
68376;BME280;55318;52.068;5.188;2023-09-18T06:33:21;100288.0;;;20.99;100.0
68376;BME280;55318;52.068;5.188;2023-09-18T06:36:33;100289.0;;;21.03;100.0
68376;BME280;55318;52.068;5.188;2023-09-18T06:38:09;100281.0;;;21.0;100.0
68376;BME280;55318;52.068;5.188;2023-09-18T06:39:45;100282.0;;;21.01;100.0
68376;BME280;55318;52.068;5.188;2023-09-18T06:41:21;100281.0;;;21.08;100.0
68376;BME280;55318;52.068;5.188;2023-09-18T06:44:35;100278.0;;;21.06;100.0
68376;BME280;55318;52.068;5.188;2023-09-18T06:46:11;100270.0;;;21.12;100.0
68376;BME280;55318;52.068;5.188;2023-09-18T06:47:47;100270.0;;;21.1;100.0
68376;BME280;55318;52.068;5.188;2023-09-18T06:50:59;100276.0;;;21.13;100.0
68376;BME280;55318;52.068;5.188;2023-09-18T06:52:35;100288.0;;;21.21;100.0
68376;BME280;55318;52.068;5.188;2023-09-18T06:54:11;100287.0;;;21.27;100.0
68376;BME280;55318;52.068;5.188;2023-09-18T06:57:24;100293.0;;;21.23;100.0
68376;BME280;55318;52.068;5.188;2023-09-18T06:58:59;100293.0;;;21.27;100.0
68376;BME280;55318;52.068;5.188;2023-09-18T07:00:36;100298.0;;;21.35;100.0
68376;BME280;55318;52.068;5.188;2023-09-18T07:02:12;100296.0;;;21.38;100.0
68376;BME280;55318;52.068;5.188;2023-09-18T07:05:24;100293.0;;;21.39;100.0
68376;BME280;55318;52.068;5.188;2023-09-18T07:07:00;100292.0;;;21.42;100.0
68376;BME280;55318;52.068;5.188;2023-09-18T07:08:36;100293.0;;;21.45;100.0
68376;BME280;55318;52.068;5.188;2023-09-18T07:11:48;100298.0;;;21.55;100.0
68376;BME280;55318;52.068;5.188;2023-09-18T07:13:25;100296.0;;;21.53;100.0
68376;BME280;55318;52.068;5.188;2023-09-18T07:15:01;100294.0;;;21.55;100.0
68376;BME280;55318;52.068;5.188;2023-09-18T07:18:14;100303.0;;;21.62;100.0
68376;BME280;55318;52.068;5.188;2023-09-18T07:19:50;100301.0;;;21.58;100.0
68376;BME280;55318;52.068;5.188;2023-09-18T07:21:26;100294.0;;;21.67;100.0
68376;BME280;55318;52.068;5.188;2023-09-18T07:24:38;100294.0;;;21.64;100.0
68376;BME280;55318;52.068;5.188;2023-09-18T07:26:14;100299.0;;;21.62;100.0
68376;BME280;55318;52.068;5.188;2023-09-18T07:27:50;100296.0;;;21.63;100.0
68376;BME280;55318;52.068;5.188;2023-09-18T07:29:26;100291.0;;;21.67;100.0
68376;BME280;55318;52.068;5.188;2023-09-18T07:32:41;100286.0;;;21.57;100.0
68376;BME280;55318;52.068;5.188;2023-09-18T07:35:53;100276.0;;;21.59;100.0
68376;BME280;55318;52.068;5.188;2023-09-18T07:39:05;100271.0;;;21.67;100.0
68376;BME280;55318;52.068;5.188;2023-09-18T07:40:41;100278.0;;;21.56;100.0
68376;BME280;55318;52.068;5.188;2023-09-18T07:42:17;100288.0;;;21.63;100.0
68376;BME280;55318;52.068;5.188;2023-09-18T07:45:29;100287.0;;;21.59;100.0
68376;BME280;55318;52.068;5.188;2023-09-18T07:47:05;100291.0;;;21.65;100.0
68376;BME280;55318;52.068;5.188;2023-09-18T07:48:42;100292.0;;;21.7;100.0
68376;BME280;55318;52.068;5.188;2023-09-18T07:50:18;100290.0;;;21.68;100.0
68376;BME280;55318;52.068;5.188;2023-09-18T07:53:30;100299.0;;;21.63;100.0
68376;BME280;55318;52.068;5.188;2023-09-18T07:55:07;100300.0;;;21.62;100.0
68376;BME280;55318;52.068;5.188;2023-09-18T07:56:43;100316.0;;;21.69;100.0
68376;BME280;55318;52.068;5.188;2023-09-18T07:59:55;100307.0;;;21.74;100.0
68376;BME280;55318;52.068;5.188;2023-09-18T08:01:32;100312.0;;;21.71;100.0
68376;BME280;55318;52.068;5.188;2023-09-18T08:03:08;100317.0;;;21.71;100.0
68376;BME280;55318;52.068;5.188;2023-09-18T08:06:20;100320.0;;;21.67;100.0
68376;BME280;55318;52.068;5.188;2023-09-18T08:07:56;100321.0;;;21.72;100.0
68376;BME280;55318;52.068;5.188;2023-09-18T08:09:32;100321.0;;;21.8;100.0
68376;BME280;55318;52.068;5.188;2023-09-18T08:12:44;100321.0;;;21.93;99.97
68376;BME280;55318;52.068;5.188;2023-09-18T08:14:20;100321.0;;;21.87;100.0
68376;BME280;55318;52.068;5.188;2023-09-18T08:15:56;100320.0;;;21.98;99.3
68376;BME280;55318;52.068;5.188;2023-09-18T08:17:32;100316.0;;;21.98;98.17
68376;BME280;55318;52.068;5.188;2023-09-18T08:20:45;100323.0;;;22.05;99.21
68376;BME280;55318;52.068;5.188;2023-09-18T08:22:21;100319.0;;;22.15;98.86
68376;BME280;55318;52.068;5.188;2023-09-18T08:23:57;100324.0;;;22.15;97.2
68376;BME280;55318;52.068;5.188;2023-09-18T08:27:09;100318.0;;;22.23;97.45
68376;BME280;55318;52.068;5.188;2023-09-18T08:28:45;100325.0;;;22.32;97.77
68376;BME280;55318;52.068;5.188;2023-09-18T08:30:21;100337.0;;;22.27;96.42
68376;BME280;55318;52.068;5.188;2023-09-18T08:33:34;100331.0;;;22.36;97.42
68376;BME280;55318;52.068;5.188;2023-09-18T08:35:10;100338.0;;;22.51;97.04
68376;BME280;55318;52.068;5.188;2023-09-18T08:36:46;100341.0;;;22.67;95.99
68376;BME280;55318;52.068;5.188;2023-09-18T08:39:58;100338.0;;;22.92;94.63
68376;BME280;55318;52.068;5.188;2023-09-18T08:41:38;100342.0;;;23.15;95.16
68376;BME280;55318;52.068;5.188;2023-09-18T08:43:17;100338.0;;;23.4;92.96
68376;BME280;55318;52.068;5.188;2023-09-18T08:44:57;100344.0;;;23.6;90.66
68376;BME280;55318;52.068;5.188;2023-09-18T08:48:11;100345.0;;;23.92;90.72
68376;BME280;55318;52.068;5.188;2023-09-18T08:49:49;100344.0;;;23.87;87.16
68376;BME280;55318;52.068;5.188;2023-09-18T08:51:27;100349.0;;;24.06;87.51
68376;BME280;55318;52.068;5.188;2023-09-18T08:53:03;100360.0;;;24.07;86.07
68376;BME280;55318;52.068;5.188;2023-09-18T08:56:17;100358.0;;;24.0;85.54
68376;BME280;55318;52.068;5.188;2023-09-18T08:57:54;100360.0;;;23.98;84.88
68376;BME280;55318;52.068;5.188;2023-09-18T08:59:35;100362.0;;;23.9;84.85
68376;BME280;55318;52.068;5.188;2023-09-18T09:02:47;100366.0;;;23.84;85.21
68376;BME280;55318;52.068;5.188;2023-09-18T09:04:23;100369.0;;;24.04;88.17
68376;BME280;55318;52.068;5.188;2023-09-18T09:06:00;100385.0;;;24.14;85.48
68376;BME280;55318;52.068;5.188;2023-09-18T09:09:13;100380.0;;;24.07;84.14
68376;BME280;55318;52.068;5.188;2023-09-18T09:10:49;100380.0;;;24.04;84.96
68376;BME280;55318;52.068;5.188;2023-09-18T09:12:58;100389.0;;;24.1;84.69
68376;BME280;55318;52.068;5.188;2023-09-18T09:14:34;100388.0;;;24.05;84.92
68376;BME280;55318;52.068;5.188;2023-09-18T09:16:11;100391.0;;;23.9;83.37
68376;BME280;55318;52.068;5.188;2023-09-18T09:19:29;100387.0;;;23.89;84.77
68376;BME280;55318;52.068;5.188;2023-09-18T09:21:06;100392.0;;;24.15;84.64
68376;BME280;55318;52.068;5.188;2023-09-18T09:22:42;100392.0;;;24.2;84.2
68376;BME280;55318;52.068;5.188;2023-09-18T09:26:13;100390.0;;;24.23;84.57
68376;BME280;55318;52.068;5.188;2023-09-18T09:27:50;100395.0;;;24.24;84.08
68376;BME280;55318;52.068;5.188;2023-09-18T09:29:26;100394.0;;;24.09;83.37
68376;BME280;55318;52.068;5.188;2023-09-18T09:31:03;100391.0;;;23.86;81.56
68376;BME280;55318;52.068;5.188;2023-09-18T09:34:24;100401.0;;;23.83;83.6
68376;BME280;55318;52.068;5.188;2023-09-18T09:36:04;100400.0;;;23.73;82.78
68376;BME280;55318;52.068;5.188;2023-09-18T09:37:41;100415.0;;;23.56;82.58
68376;BME280;55318;52.068;5.188;2023-09-18T09:39:17;100407.0;;;23.5;84.02
68376;BME280;55318;52.068;5.188;2023-09-18T09:42:38;100408.0;;;23.37;82.29
68376;BME280;55318;52.068;5.188;2023-09-18T09:44:14;100410.0;;;23.23;84.13
68376;BME280;55318;52.068;5.188;2023-09-18T09:45:56;100412.0;;;23.18;84.69
68376;BME280;55318;52.068;5.188;2023-09-18T09:47:34;100413.0;;;23.14;85.14
68376;BME280;55318;52.068;5.188;2023-09-18T09:50:48;100411.0;;;23.13;86.25
68376;BME280;55318;52.068;5.188;2023-09-18T09:52:24;100413.0;;;22.95;85.54
68376;BME280;55318;52.068;5.188;2023-09-18T09:54:00;100430.0;;;22.99;84.96
68376;BME280;55318;52.068;5.188;2023-09-18T09:57:12;100430.0;;;22.83;85.77
68376;BME280;55318;52.068;5.188;2023-09-18T09:59:04;100430.0;;;22.93;87.04
68376;BME280;55318;52.068;5.188;2023-09-18T10:00:43;100435.0;;;22.93;85.79
68376;BME280;55318;52.068;5.188;2023-09-18T10:02:21;100438.0;;;22.83;86.47
68376;BME280;55318;52.068;5.188;2023-09-18T10:05:35;100430.0;;;22.86;88.01
68376;BME280;55318;52.068;5.188;2023-09-18T10:07:13;100428.0;;;22.7;87.05
68376;BME280;55318;52.068;5.188;2023-09-18T10:08:49;100430.0;;;22.78;86.94
68376;BME280;55318;52.068;5.188;2023-09-18T10:12:10;100424.0;;;22.7;86.67
68376;BME280;55318;52.068;5.188;2023-09-18T10:13:49;100417.0;;;22.78;86.39
68376;BME280;55318;52.068;5.188;2023-09-18T10:15:33;100415.0;;;22.74;86.46
68376;BME280;55318;52.068;5.188;2023-09-18T10:17:15;100421.0;;;22.74;88.02
68376;BME280;55318;52.068;5.188;2023-09-18T10:18:56;100420.0;;;22.87;87.66
68376;BME280;55318;52.068;5.188;2023-09-18T10:22:21;100422.0;;;22.99;89.01
68376;BME280;55318;52.068;5.188;2023-09-18T10:24:11;100433.0;;;23.11;86.67
68376;BME280;55318;52.068;5.188;2023-09-18T10:25:54;100428.0;;;23.14;86.11
68376;BME280;55318;52.068;5.188;2023-09-18T10:27:31;100430.0;;;23.09;86.02
68376;BME280;55318;52.068;5.188;2023-09-18T10:30:46;100433.0;;;22.98;84.49
68376;BME280;55318;52.068;5.188;2023-09-18T10:32:25;100428.0;;;23.14;84.58
68376;BME280;55318;52.068;5.188;2023-09-18T10:34:02;100430.0;;;23.08;83.4
68376;BME280;55318;52.068;5.188;2023-09-18T10:35:41;100430.0;;;23.17;85.08
68376;BME280;55318;52.068;5.188;2023-09-18T10:38:55;100436.0;;;23.19;83.89
68376;BME280;55318;52.068;5.188;2023-09-18T10:40:32;100437.0;;;23.17;83.14
68376;BME280;55318;52.068;5.188;2023-09-18T10:42:12;100438.0;;;23.16;83.35
68376;BME280;55318;52.068;5.188;2023-09-18T10:45:30;100437.0;;;23.17;82.39
68376;BME280;55318;52.068;5.188;2023-09-18T10:47:09;100443.0;;;22.99;82.99
68376;BME280;55318;52.068;5.188;2023-09-18T10:48:47;100434.0;;;22.91;83.77
68376;BME280;55318;52.068;5.188;2023-09-18T10:50:25;100448.0;;;22.87;84.37
68376;BME280;55318;52.068;5.188;2023-09-18T10:53:39;100431.0;;;22.8;83.72
68376;BME280;55318;52.068;5.188;2023-09-18T10:55:16;100430.0;;;22.77;84.2
68376;BME280;55318;52.068;5.188;2023-09-18T10:56:52;100425.0;;;22.95;84.48
68376;BME280;55318;52.068;5.188;2023-09-18T11:00:07;100422.0;;;23.04;83.23
68376;BME280;55318;52.068;5.188;2023-09-18T11:01:46;100423.0;;;23.27;83.6
68376;BME280;55318;52.068;5.188;2023-09-18T11:03:23;100428.0;;;23.38;83.38
68376;BME280;55318;52.068;5.188;2023-09-18T11:04:59;100430.0;;;23.34;81.87
68376;BME280;55318;52.068;5.188;2023-09-18T11:08:45;100430.0;;;23.49;81.33
68376;BME280;55318;52.068;5.188;2023-09-18T11:10:25;100422.0;;;23.48;78.91
68376;BME280;55318;52.068;5.188;2023-09-18T11:12:03;100416.0;;;23.52;79.52